createdAt,value
2018-02-24T00:02:01.099Z,-0.88
2018-02-24T00:04:29.513Z,-0.91
2018-02-24T00:06:57.919Z,-0.98
2018-02-24T00:09:26.246Z,-1.05
2018-02-24T00:11:54.598Z,-1.06
2018-02-24T00:14:23.011Z,-0.88
2018-02-24T00:16:51.360Z,-1.00
2018-02-24T00:19:19.682Z,-1.15
2018-02-24T00:21:48.035Z,-0.99
2018-02-24T00:24:16.364Z,-1.07
2018-02-24T00:26:44.770Z,-1.15
2018-02-24T00:29:13.175Z,-1.17
2018-02-24T00:31:41.598Z,-1.02
2018-02-24T00:34:09.918Z,-1.01
2018-02-24T00:36:38.261Z,-0.97
2018-02-24T00:39:06.588Z,-0.89
2018-02-24T00:41:34.942Z,-0.93
2018-02-24T00:44:03.288Z,-0.91
2018-02-24T00:46:31.636Z,-0.91
2018-02-24T00:48:59.974Z,-0.96
2018-02-24T00:51:28.394Z,-0.96
2018-02-24T00:53:56.801Z,-1.07
2018-02-24T00:56:25.186Z,-1.08
2018-02-24T00:58:53.504Z,-1.06
2018-02-24T01:01:21.935Z,-1.09
2018-02-24T01:03:50.247Z,-1.01
2018-02-24T01:06:18.607Z,-0.86
2018-02-24T01:08:47.043Z,-0.95
2018-02-24T01:11:15.411Z,-1.09
2018-02-24T01:13:43.754Z,-1.11
2018-02-24T01:16:12.105Z,-1.11
2018-02-24T01:18:40.443Z,-1.02
2018-02-24T01:21:08.815Z,-0.99
2018-02-24T01:23:37.118Z,-1.05
2018-02-24T01:26:05.474Z,-1.13
2018-02-24T01:28:33.822Z,-1.05
2018-02-24T01:31:02.190Z,-1.18
2018-02-24T01:33:30.518Z,-1.21
2018-02-24T01:35:58.975Z,-1.31
2018-02-24T01:38:27.295Z,-1.19
2018-02-24T01:40:55.630Z,-1.19
2018-02-24T01:43:23.976Z,-1.20
2018-02-24T01:45:52.399Z,-1.20
2018-02-24T01:48:20.726Z,-1.15
2018-02-24T01:50:49.096Z,-1.19
2018-02-24T01:53:17.423Z,-1.31
2018-02-24T01:55:45.822Z,-1.18
2018-02-24T01:58:14.161Z,-1.28
2018-02-24T02:00:42.779Z,-1.25
2018-02-24T02:03:11.103Z,-1.17
2018-02-24T02:05:39.458Z,-1.23
2018-02-24T02:08:07.783Z,-1.19
2018-02-24T02:10:36.138Z,-1.17
2018-02-24T02:13:04.459Z,-1.20
2018-02-24T02:15:32.834Z,-1.28
2018-02-24T02:18:01.256Z,-1.23
2018-02-24T02:20:29.698Z,-1.34
2018-02-24T02:22:58.023Z,-1.42
2018-02-24T02:25:26.383Z,-1.31
2018-02-24T02:27:54.730Z,-1.43
2018-02-24T02:30:23.123Z,-1.45
2018-02-24T02:32:51.507Z,-1.54
2018-02-24T02:35:19.853Z,-1.44
2018-02-24T02:37:48.175Z,-1.46
2018-02-24T02:40:16.560Z,-1.50
2018-02-24T02:42:44.940Z,-1.59
2018-02-24T02:45:13.391Z,-1.48
2018-02-24T02:47:41.718Z,-1.56
2018-02-24T02:50:10.130Z,-1.56
2018-02-24T02:52:38.467Z,-1.50
2018-02-24T02:55:07.034Z,-1.49
2018-02-24T02:57:35.412Z,-1.56
2018-02-24T03:00:03.743Z,-1.55
2018-02-24T03:02:32.095Z,-1.67
2018-02-24T03:05:00.507Z,-1.65
2018-02-24T03:07:28.859Z,-1.65
2018-02-24T03:09:57.272Z,-1.71
2018-02-24T03:12:25.595Z,-1.66
2018-02-24T03:14:53.967Z,-1.68
2018-02-24T03:17:22.338Z,-1.73
2018-02-24T03:19:50.716Z,-1.72
2018-02-24T03:24:53.726Z,-1.78
2018-02-24T03:27:22.096Z,-1.99
2018-02-24T03:29:50.408Z,-1.77
2018-02-24T03:32:18.763Z,-1.96
2018-02-24T03:34:47.103Z,-2.03
2018-02-24T03:37:15.550Z,-1.97
2018-02-24T03:39:43.878Z,-1.95
2018-02-24T03:42:12.234Z,-1.94
2018-02-24T03:44:40.582Z,-1.94
2018-02-24T03:47:09.027Z,-2.00
2018-02-24T03:49:37.401Z,-1.89
2018-02-24T03:52:05.726Z,-1.91
2018-02-24T03:54:34.075Z,-1.92
2018-02-24T03:57:02.406Z,-1.89
2018-02-24T03:59:30.779Z,-1.89
2018-02-24T04:01:59.156Z,-1.88
2018-02-24T04:04:27.489Z,-1.88
2018-02-24T04:06:55.827Z,-1.87
2018-02-24T04:09:24.225Z,-1.91
2018-02-24T04:11:52.607Z,-1.94
2018-02-24T04:14:20.915Z,-1.83
2018-02-24T04:16:49.296Z,-1.90
2018-02-24T04:19:17.695Z,-1.97
2018-02-24T04:21:46.047Z,-2.01
2018-02-24T04:24:14.382Z,-2.12
2018-02-24T04:26:42.732Z,-2.04
2018-02-24T04:29:11.082Z,-1.97
2018-02-24T04:31:39.528Z,-1.95
2018-02-24T04:34:07.905Z,-1.83
2018-02-24T04:36:36.258Z,-2.02
2018-02-24T04:39:04.588Z,-1.98
2018-02-24T04:41:32.951Z,-2.11
2018-02-24T04:44:01.287Z,-2.00
2018-02-24T04:46:29.638Z,-2.06
2018-02-24T04:48:57.971Z,-2.01
2018-02-24T04:51:26.310Z,-2.14
2018-02-24T04:53:54.695Z,-2.32
2018-02-24T04:56:23.039Z,-2.18
2018-02-24T04:58:51.394Z,-2.05
2018-02-24T05:01:19.730Z,-1.96
2018-02-24T05:03:48.094Z,-2.21
2018-02-24T05:06:16.454Z,-2.18
2018-02-24T05:08:44.794Z,-2.16
2018-02-24T05:11:13.143Z,-2.07
2018-02-24T05:13:41.481Z,-2.08
2018-02-24T05:16:09.888Z,-2.16
2018-02-24T05:18:38.525Z,-2.16
2018-02-24T05:21:06.892Z,-2.33
2018-02-24T05:23:35.237Z,-2.14
2018-02-24T05:26:03.584Z,-2.17
2018-02-24T05:28:31.921Z,-2.28
2018-02-24T05:31:00.383Z,-2.24
2018-02-24T05:33:28.747Z,-2.30
2018-02-24T05:35:57.098Z,-2.32
2018-02-24T05:38:25.542Z,-2.29
2018-02-24T05:40:53.881Z,-2.34
2018-02-24T05:43:22.214Z,-2.26
2018-02-24T05:45:50.634Z,-2.45
2018-02-24T05:48:19.017Z,-2.38
2018-02-24T05:50:47.402Z,-2.28
2018-02-24T05:53:15.785Z,-2.33
2018-02-24T05:55:44.189Z,-2.34
2018-02-24T05:58:12.569Z,-2.25
2018-02-24T06:00:40.905Z,-2.42
2018-02-24T06:03:09.237Z,-2.28
2018-02-24T06:05:37.660Z,-2.27
2018-02-24T06:08:05.997Z,-2.52
2018-02-24T06:10:34.326Z,-2.27
2018-02-24T06:13:02.659Z,-2.23
2018-02-24T06:15:31.002Z,-2.11
2018-02-24T06:17:59.338Z,-2.18
2018-02-24T06:20:27.776Z,-2.11
2018-02-24T06:22:56.153Z,-2.34
2018-02-24T06:25:24.503Z,-2.32
2018-02-24T06:27:52.838Z,-2.20
2018-02-24T06:30:21.195Z,-2.11
2018-02-24T06:32:49.620Z,-2.10
2018-02-24T06:35:17.974Z,-2.20
2018-02-24T06:37:46.295Z,-2.04
2018-02-24T06:40:14.639Z,-2.17
2018-02-24T06:42:42.977Z,-2.14
2018-02-24T06:45:11.351Z,-2.26
2018-02-24T06:47:39.699Z,-2.24
2018-02-24T06:50:08.039Z,-2.29
2018-02-24T06:52:36.364Z,-2.19
2018-02-24T06:55:04.722Z,-2.26
2018-02-24T06:57:33.046Z,-2.28
2018-02-24T07:00:01.402Z,-2.33
2018-02-24T07:02:29.854Z,-2.31
2018-02-24T07:04:58.190Z,-2.36
2018-02-24T07:07:26.562Z,-2.30
2018-02-24T07:09:54.914Z,-2.26
2018-02-24T07:12:23.226Z,-2.47
2018-02-24T07:14:51.644Z,-2.35
2018-02-24T07:17:19.985Z,-2.26
2018-02-24T07:19:48.318Z,-2.45
2018-02-24T07:22:16.652Z,-2.47
2018-02-24T07:24:45.016Z,-2.42
2018-02-24T07:27:13.437Z,-2.38
2018-02-24T07:29:42.592Z,-2.27
2018-02-24T07:32:10.955Z,-2.19
2018-02-24T07:34:39.307Z,-2.34
2018-02-24T07:37:07.659Z,-2.38
2018-02-24T07:39:36.013Z,-2.14
2018-02-24T07:42:04.366Z,-2.28
2018-02-24T07:44:32.709Z,-2.35
2018-02-24T07:47:01.070Z,-2.49
2018-02-24T07:49:29.462Z,-2.44
2018-02-24T07:51:57.806Z,-2.30
2018-02-24T07:54:26.139Z,-2.32
2018-02-24T07:56:54.747Z,-2.24
2018-02-24T07:59:23.183Z,-2.69
2018-02-24T08:01:51.594Z,-2.56
2018-02-24T08:04:19.919Z,-2.49
2018-02-24T08:06:48.348Z,-2.54
2018-02-24T08:09:16.668Z,-2.33
2018-02-24T08:11:45.020Z,-2.28
2018-02-24T08:14:13.355Z,-2.32
2018-02-24T08:16:41.711Z,-2.15
2018-02-24T08:19:10.047Z,-2.53
2018-02-24T08:21:38.415Z,-2.51
2018-02-24T08:24:06.773Z,-2.31
2018-02-24T08:26:35.162Z,-2.34
2018-02-24T08:29:03.520Z,-2.59
2018-02-24T08:31:31.876Z,-2.58
2018-02-24T08:34:00.207Z,-2.21
2018-02-24T08:36:28.562Z,-2.16
2018-02-24T08:38:56.961Z,-2.25
2018-02-24T08:41:25.342Z,-2.41
2018-02-24T08:43:53.717Z,-2.62
2018-02-24T08:46:22.031Z,-2.40
2018-02-24T08:48:50.382Z,-2.42
2018-02-24T08:51:18.715Z,-2.07
2018-02-24T08:53:47.067Z,-2.07
2018-02-24T08:56:15.391Z,-2.27
2018-02-24T08:58:43.855Z,-2.32
2018-02-24T09:01:12.224Z,-2.23
2018-02-24T09:03:40.578Z,-2.34
2018-02-24T09:06:08.904Z,-2.32
2018-02-24T09:08:37.265Z,-2.45
2018-02-24T09:11:05.662Z,-2.38
2018-02-24T09:13:34.010Z,-2.29
2018-02-24T09:16:02.397Z,-2.12
2018-02-24T09:18:30.783Z,-2.10
2018-02-24T09:20:59.119Z,-1.93
2018-02-24T09:23:27.467Z,-1.75
2018-02-24T09:25:55.945Z,-1.88
2018-02-24T09:28:24.312Z,-1.91
2018-02-24T09:30:52.635Z,-1.64
2018-02-24T09:33:20.983Z,-1.63
2018-02-24T09:35:49.362Z,-1.69
2018-02-24T09:38:17.726Z,-1.64
2018-02-24T09:40:46.188Z,-1.59
2018-02-24T09:43:14.586Z,-1.67
2018-02-24T09:45:42.907Z,-1.49
2018-02-24T09:48:11.326Z,-1.42
2018-02-24T09:50:39.644Z,-1.54
2018-02-24T09:53:08.082Z,-1.25
2018-02-24T09:55:36.488Z,-1.50
2018-02-24T09:58:04.841Z,-1.27
2018-02-24T10:00:33.188Z,-1.18
2018-02-24T10:03:01.561Z,-1.11
2018-02-24T10:05:29.966Z,-1.31
2018-02-24T10:07:58.318Z,-1.26
2018-02-24T10:10:26.659Z,-1.42
2018-02-24T10:12:55.022Z,-1.35
2018-02-24T10:15:23.327Z,-1.10
2018-02-24T10:17:51.675Z,-1.18
2018-02-24T10:20:20.052Z,-1.19
2018-02-24T10:22:48.430Z,-1.09
2018-02-24T10:25:16.755Z,-0.72
2018-02-24T10:27:45.166Z,-0.85
2018-02-24T10:30:13.542Z,-0.95
2018-02-24T10:32:41.959Z,-0.97
2018-02-24T10:35:10.258Z,-0.86
2018-02-24T10:37:38.600Z,-0.50
2018-02-24T10:40:06.955Z,-0.43
2018-02-24T10:42:35.308Z,-0.41
2018-02-24T10:45:03.666Z,-0.36
2018-02-24T10:47:32.868Z,-0.45
2018-02-24T10:50:01.202Z,-0.37
2018-02-24T10:52:29.547Z,-0.31
2018-02-24T10:54:57.883Z,-0.10
2018-02-24T10:57:26.247Z,-0.19
2018-02-24T10:59:54.631Z,-0.07
2018-02-24T11:02:22.960Z,-0.35
2018-02-24T11:04:51.387Z,-0.19
2018-02-24T11:07:19.709Z,0.12
2018-02-24T11:09:48.029Z,0.53
2018-02-24T11:12:16.378Z,0.52
2018-02-24T11:14:44.698Z,0.80
2018-02-24T11:17:13.030Z,0.97
2018-02-24T11:19:41.452Z,1.16
2018-02-24T11:22:09.784Z,1.41
2018-02-24T11:24:38.135Z,1.53
2018-02-24T11:27:06.463Z,1.71
2018-02-24T11:29:34.800Z,1.47
2018-02-24T11:32:03.199Z,1.61
2018-02-24T11:34:31.635Z,2.28
2018-02-24T11:36:59.945Z,2.50
2018-02-24T11:39:33.964Z,2.61
2018-02-24T11:42:02.283Z,2.30
2018-02-24T11:44:30.635Z,2.67
2018-02-24T11:46:59.044Z,3.23
2018-02-24T11:49:27.395Z,3.42
2018-02-24T11:51:55.799Z,3.98
2018-02-24T11:54:24.176Z,5.65
2018-02-24T11:56:52.546Z,5.98
2018-02-24T11:59:20.896Z,6.78
2018-02-24T12:01:49.226Z,6.40
2018-02-24T12:04:17.569Z,5.78
2018-02-24T12:06:45.898Z,7.81
2018-02-24T12:09:14.244Z,8.19
2018-02-24T12:11:42.640Z,9.02
2018-02-24T12:14:11.006Z,8.88
2018-02-24T12:19:14.110Z,9.57
2018-02-24T12:21:42.415Z,9.80
2018-02-24T12:24:10.754Z,8.98
2018-02-24T12:26:39.136Z,8.34
2018-02-24T12:29:07.470Z,9.24
2018-02-24T12:31:35.800Z,10.21
2018-02-24T12:34:04.119Z,8.98
2018-02-24T12:36:32.455Z,9.55
2018-02-24T12:39:00.804Z,10.12
2018-02-24T12:41:29.141Z,9.95
2018-02-24T12:43:57.463Z,9.00
2018-02-24T12:46:25.787Z,9.45
2018-02-24T12:48:54.131Z,9.65
2018-02-24T12:51:22.451Z,9.73
2018-02-24T12:53:50.805Z,9.80
2018-02-24T12:56:19.118Z,11.31
2018-02-24T12:58:47.465Z,10.47
2018-02-24T13:01:15.786Z,11.03
2018-02-24T13:03:44.138Z,11.66
2018-02-24T13:06:12.466Z,11.60
2018-02-24T13:08:40.807Z,11.53
2018-02-24T13:11:09.166Z,10.90
2018-02-24T13:13:37.524Z,11.28
2018-02-24T13:16:05.847Z,10.00
2018-02-24T13:18:34.245Z,10.34
2018-02-24T13:21:02.572Z,11.71
2018-02-24T13:23:30.896Z,10.74
2018-02-24T13:25:59.226Z,9.20
2018-02-24T13:28:27.779Z,8.43
2018-02-24T13:30:56.158Z,8.41
2018-02-24T13:33:24.483Z,8.92
2018-02-24T13:35:53.825Z,9.92
2018-02-24T13:38:22.136Z,11.05
2018-02-24T13:40:50.485Z,9.42
2018-02-24T13:43:18.968Z,10.43
2018-02-24T13:45:47.313Z,10.08
2018-02-24T13:48:15.705Z,8.97
2018-02-24T13:50:44.000Z,9.59
2018-02-24T13:53:12.306Z,8.68
2018-02-24T13:55:40.666Z,9.08
2018-02-24T13:58:09.002Z,9.43
2018-02-24T14:00:37.338Z,8.83
2018-02-24T14:03:05.715Z,10.74
2018-02-24T14:05:34.030Z,9.30
2018-02-24T14:08:02.368Z,8.75
2018-02-24T14:10:30.700Z,8.79
2018-02-24T14:12:59.099Z,9.98
2018-02-24T14:15:27.447Z,10.01
2018-02-24T14:17:55.776Z,9.80
2018-02-24T14:20:24.132Z,11.65
2018-02-24T14:22:52.453Z,11.20
2018-02-24T14:25:20.855Z,11.93
2018-02-24T14:27:49.171Z,9.26
2018-02-24T14:30:17.523Z,9.02
2018-02-24T14:32:45.855Z,8.37
2018-02-24T14:35:14.198Z,9.17
2018-02-24T14:37:42.524Z,7.64
2018-02-24T14:40:10.878Z,9.05
2018-02-24T14:42:39.295Z,10.33
2018-02-24T14:45:07.646Z,10.26
2018-02-24T14:47:35.973Z,10.91
2018-02-24T14:50:04.320Z,11.15
2018-02-24T14:52:32.658Z,10.38
2018-02-24T14:55:01.001Z,11.08
2018-02-24T14:57:29.327Z,9.08
2018-02-24T14:59:57.672Z,9.29
2018-02-24T15:02:25.998Z,8.99
2018-02-24T15:04:54.346Z,9.58
2018-02-24T15:07:22.663Z,10.22
2018-02-24T15:09:51.085Z,11.71
2018-02-24T15:12:19.403Z,11.53
2018-02-24T15:14:47.732Z,9.98
2018-02-24T15:17:16.063Z,9.30
2018-02-24T15:19:44.409Z,8.20
2018-02-24T15:22:12.745Z,8.41
2018-02-24T15:24:41.082Z,7.51
2018-02-24T15:27:09.440Z,6.78
2018-02-24T15:29:38.419Z,5.86
2018-02-24T15:32:06.796Z,6.14
2018-02-24T15:34:35.120Z,6.03
2018-02-24T15:37:03.475Z,6.06
2018-02-24T15:39:31.879Z,5.33
2018-02-24T15:42:00.283Z,4.62
2018-02-24T15:44:28.663Z,4.09
2018-02-24T15:46:57.065Z,3.03
2018-02-24T15:49:25.386Z,3.36
2018-02-24T15:51:53.819Z,3.58
2018-02-24T15:54:22.119Z,3.38
2018-02-24T15:56:50.455Z,3.25
2018-02-24T15:59:18.854Z,3.35
2018-02-24T16:01:47.294Z,3.52
2018-02-24T16:04:15.685Z,2.92
2018-02-24T16:06:44.068Z,2.92
2018-02-24T16:09:12.427Z,2.57
2018-02-24T16:11:40.734Z,2.24
2018-02-24T16:14:09.123Z,2.04
2018-02-24T16:16:37.432Z,1.46
2018-02-24T16:19:06.034Z,1.50
2018-02-24T16:21:34.379Z,1.29
2018-02-24T16:24:02.739Z,1.37
2018-02-24T16:26:31.036Z,1.14
2018-02-24T16:28:59.384Z,1.25
2018-02-24T16:31:27.687Z,0.99
2018-02-24T16:33:56.103Z,0.96
2018-02-24T16:36:24.528Z,0.97
2018-02-24T16:38:52.855Z,0.85
2018-02-24T16:41:21.354Z,0.85
2018-02-24T16:43:49.695Z,0.67
2018-02-24T16:46:18.042Z,0.65
2018-02-24T16:48:46.376Z,0.56
2018-02-24T16:51:14.693Z,0.50
2018-02-24T16:53:43.146Z,0.37
2018-02-24T16:56:11.464Z,0.41
2018-02-24T16:58:39.792Z,0.32
2018-02-24T17:01:08.217Z,0.33
2018-02-24T17:03:36.552Z,0.29
2018-02-24T17:06:04.879Z,0.22
2018-02-24T17:08:33.301Z,0.38
2018-02-24T17:11:01.689Z,0.28
2018-02-24T17:13:30.064Z,0.13
2018-02-24T17:15:58.439Z,0.07
2018-02-24T17:18:26.785Z,0.10
2018-02-24T17:20:55.209Z,-0.04
2018-02-24T17:23:23.615Z,0.09
2018-02-24T17:25:51.930Z,0.07
2018-02-24T17:28:20.270Z,0.04
2018-02-24T17:30:48.616Z,0.04
2018-02-24T17:33:16.958Z,0.08
2018-02-24T17:35:45.297Z,-0.06
2018-02-24T17:38:13.649Z,-0.24
2018-02-24T17:40:42.072Z,-0.30
2018-02-24T17:43:10.418Z,-0.16
2018-02-24T17:45:38.735Z,-0.34
2018-02-24T17:48:07.119Z,-0.29
2018-02-24T17:50:35.469Z,-0.41
2018-02-24T17:53:03.849Z,-0.52
2018-02-24T17:55:32.185Z,-0.66
2018-02-24T17:58:00.526Z,-0.61
2018-02-24T18:00:29.017Z,-0.70
2018-02-24T18:02:57.370Z,-0.69
2018-02-24T18:05:25.738Z,-0.75
2018-02-24T18:07:54.088Z,-0.77
2018-02-24T18:10:22.420Z,-0.92
2018-02-24T18:12:50.787Z,-1.01
2018-02-24T18:15:19.115Z,-0.92
2018-02-24T18:17:46.993Z,-1.07
2018-02-24T18:20:15.207Z,-1.01
2018-02-24T18:22:43.546Z,-1.08
2018-02-24T18:25:11.883Z,-1.16
2018-02-24T18:27:40.221Z,-1.06
2018-02-24T18:30:08.539Z,-0.93
2018-02-24T18:32:36.939Z,-1.31
2018-02-24T18:35:05.283Z,-1.29
2018-02-24T18:37:33.633Z,-1.25
2018-02-24T18:40:01.968Z,-1.35
2018-02-24T18:42:30.354Z,-1.44
2018-02-24T18:44:58.698Z,-1.40
2018-02-24T18:47:27.034Z,-1.69
2018-02-24T18:49:55.361Z,-1.52
2018-02-24T18:52:23.753Z,-1.55
2018-02-24T18:54:52.072Z,-1.58
2018-02-24T18:57:20.456Z,-1.57
2018-02-24T18:59:48.837Z,-1.56
2018-02-24T19:02:17.188Z,-1.54
2018-02-24T19:04:45.527Z,-1.60
2018-02-24T19:07:13.934Z,-1.66
2018-02-24T19:09:42.259Z,-1.60
2018-02-24T19:12:10.607Z,-1.79
2018-02-24T19:14:38.927Z,-1.98
2018-02-24T19:17:07.274Z,-1.91
2018-02-24T19:19:35.659Z,-1.91
2018-02-24T19:22:03.990Z,-1.75
2018-02-24T19:24:32.382Z,-1.91
2018-02-24T19:27:00.733Z,-1.97
2018-02-24T19:29:29.082Z,-1.86
2018-02-24T19:31:57.448Z,-2.13
2018-02-24T19:34:25.799Z,-2.08
2018-02-24T19:36:54.127Z,-2.10
2018-02-24T19:39:22.469Z,-2.10
2018-02-24T19:41:50.855Z,-2.11
2018-02-24T19:44:19.341Z,-2.30
2018-02-24T19:46:47.660Z,-2.24
2018-02-24T19:49:15.999Z,-2.42
2018-02-24T19:51:44.376Z,-2.31
2018-02-24T19:54:12.814Z,-2.31
2018-02-24T19:56:41.141Z,-2.30
2018-02-24T19:59:09.488Z,-2.44
2018-02-24T20:01:37.810Z,-2.32
2018-02-24T20:04:06.162Z,-2.62
2018-02-24T20:06:34.536Z,-2.40
2018-02-24T20:09:02.870Z,-2.72
2018-02-24T20:11:31.254Z,-2.52
2018-02-24T20:13:59.683Z,-2.63
2018-02-24T20:16:28.014Z,-2.73
2018-02-24T20:18:56.342Z,-2.59
2018-02-24T20:21:24.695Z,-2.86
2018-02-24T20:23:53.086Z,-2.69
2018-02-24T20:26:21.565Z,-2.67
2018-02-24T20:28:49.885Z,-2.74
2018-02-24T20:31:18.232Z,-2.71
2018-02-24T20:33:46.671Z,-2.78
2018-02-24T20:36:15.023Z,-2.84
2018-02-24T20:38:43.341Z,-2.99
2018-02-24T20:41:11.787Z,-2.78
2018-02-24T20:43:40.138Z,-3.02
2018-02-24T20:46:08.479Z,-2.91
2018-02-24T20:48:36.818Z,-2.93
2018-02-24T20:51:05.247Z,-2.90
2018-02-24T20:53:33.582Z,-2.74
2018-02-24T20:56:01.918Z,-2.82
2018-02-24T20:58:30.251Z,-2.85
2018-02-24T21:00:58.590Z,-2.94
2018-02-24T21:03:26.915Z,-2.93
2018-02-24T21:05:55.276Z,-3.03
2018-02-24T21:08:23.599Z,-2.97
2018-02-24T21:10:51.965Z,-2.96
2018-02-24T21:13:20.339Z,-3.00
2018-02-24T21:15:48.685Z,-2.92
2018-02-24T21:18:17.067Z,-3.10
2018-02-24T21:20:45.478Z,-3.16
2018-02-24T21:23:13.818Z,-3.10
2018-02-24T21:25:42.157Z,-3.13
2018-02-24T21:28:10.499Z,-3.12
2018-02-24T21:30:38.848Z,-3.20
2018-02-24T21:33:07.286Z,-3.15
2018-02-24T21:35:35.646Z,-3.03
2018-02-24T21:38:04.003Z,-3.06
2018-02-24T21:40:32.384Z,-3.10
2018-02-24T21:43:00.709Z,-3.27
2018-02-24T21:45:29.046Z,-3.54
2018-02-24T21:47:57.404Z,-3.38
2018-02-24T21:50:25.755Z,-3.33
2018-02-24T21:52:54.064Z,-3.43
2018-02-24T21:55:22.394Z,-3.54
2018-02-24T21:57:50.722Z,-3.61
2018-02-24T22:00:19.091Z,-3.48
2018-02-24T22:02:47.463Z,-3.39
2018-02-24T22:05:15.783Z,-3.61
2018-02-24T22:07:44.100Z,-3.60
2018-02-24T22:10:12.488Z,-3.81
2018-02-24T22:12:40.864Z,-3.70
2018-02-24T22:15:09.242Z,-3.74
2018-02-24T22:17:37.626Z,-3.85
2018-02-24T22:20:06.048Z,-3.82
2018-02-24T22:22:34.352Z,-3.75
2018-02-24T22:25:02.806Z,-3.93
2018-02-24T22:27:31.138Z,-3.96
2018-02-24T22:29:59.559Z,-4.05
2018-02-24T22:32:27.896Z,-4.11
2018-02-24T22:34:56.273Z,-4.07
2018-02-24T22:37:24.659Z,-4.20
2018-02-24T22:39:53.031Z,-4.39
2018-02-24T22:42:21.454Z,-4.28
2018-02-24T22:44:49.830Z,-4.25
2018-02-24T22:47:18.173Z,-4.35
2018-02-24T22:49:46.589Z,-4.62
2018-02-24T22:52:15.038Z,-4.62
2018-02-24T22:54:43.358Z,-4.60
2018-02-24T22:57:11.686Z,-4.69
2018-02-24T22:59:40.054Z,-4.78
2018-02-24T23:02:08.362Z,-4.87
2018-02-24T23:04:36.755Z,-4.91
2018-02-24T23:07:05.138Z,-4.77
2018-02-24T23:09:33.463Z,-4.84
2018-02-24T23:12:01.791Z,-4.83
2018-02-24T23:14:30.135Z,-4.86
2018-02-24T23:16:58.447Z,-5.05
2018-02-24T23:19:26.797Z,-5.02
2018-02-24T23:21:55.124Z,-5.08
2018-02-24T23:24:23.508Z,-5.11
2018-02-24T23:26:51.853Z,-5.08
2018-02-24T23:29:20.235Z,-4.98
2018-02-24T23:31:48.574Z,-5.27
2018-02-24T23:34:16.894Z,-5.51
2018-02-24T23:36:45.231Z,-5.42
2018-02-24T23:39:13.548Z,-5.27
2018-02-24T23:41:41.920Z,-5.34
2018-02-24T23:44:10.248Z,-5.28
2018-02-24T23:46:38.556Z,-5.53
2018-02-24T23:49:07.025Z,-5.53
2018-02-24T23:51:35.337Z,-5.63
2018-02-24T23:54:03.763Z,-5.41
2018-02-24T23:56:32.159Z,-5.47
2018-02-24T23:59:00.529Z,-5.58
